sensor_id;sensor_type;location;lat;lon;timestamp;P1;durP1;ratioP1;P2;durP2;ratioP2
53503;SDS011;39387;50.998;22.340;2023-04-03T00:01:44;5.43;;;3.25;;
53503;SDS011;39387;50.998;22.340;2023-04-03T00:04:13;5.78;;;3.08;;
53503;SDS011;39387;50.998;22.340;2023-04-03T00:06:40;6.25;;;3.17;;
53503;SDS011;39387;50.998;22.340;2023-04-03T00:09:08;5.45;;;3.40;;
53503;SDS011;39387;50.998;22.340;2023-04-03T00:11:35;5.70;;;3.30;;
53503;SDS011;39387;50.998;22.340;2023-04-03T00:14:03;5.53;;;3.10;;
53503;SDS011;39387;50.998;22.340;2023-04-03T00:16:30;4.90;;;2.88;;
53503;SDS011;39387;50.998;22.340;2023-04-03T00:18:58;5.53;;;2.88;;
53503;SDS011;39387;50.998;22.340;2023-04-03T00:21:26;4.55;;;2.42;;
53503;SDS011;39387;50.998;22.340;2023-04-03T00:23:54;6.47;;;2.95;;
53503;SDS011;39387;50.998;22.340;2023-04-03T00:26:21;4.65;;;2.67;;
53503;SDS011;39387;50.998;22.340;2023-04-03T00:28:49;5.15;;;3.00;;
53503;SDS011;39387;50.998;22.340;2023-04-03T00:31:17;6.30;;;3.00;;
53503;SDS011;39387;50.998;22.340;2023-04-03T00:33:45;5.00;;;2.45;;
53503;SDS011;39387;50.998;22.340;2023-04-03T00:36:12;4.32;;;2.60;;
53503;SDS011;39387;50.998;22.340;2023-04-03T00:38:41;5.32;;;2.70;;
53503;SDS011;39387;50.998;22.340;2023-04-03T00:41:09;5.05;;;3.20;;
53503;SDS011;39387;50.998;22.340;2023-04-03T00:43:36;3.13;;;2.20;;
53503;SDS011;39387;50.998;22.340;2023-04-03T00:46:04;4.35;;;2.45;;
53503;SDS011;39387;50.998;22.340;2023-04-03T00:48:32;4.60;;;2.42;;
53503;SDS011;39387;50.998;22.340;2023-04-03T00:51:03;4.53;;;2.75;;
53503;SDS011;39387;50.998;22.340;2023-04-03T00:53:33;6.15;;;2.85;;
53503;SDS011;39387;50.998;22.340;2023-04-03T00:56:04;3.92;;;2.58;;
53503;SDS011;39387;50.998;22.340;2023-04-03T00:58:36;4.65;;;2.85;;
53503;SDS011;39387;50.998;22.340;2023-04-03T01:01:07;4.80;;;2.90;;
53503;SDS011;39387;50.998;22.340;2023-04-03T01:03:36;5.38;;;2.70;;
53503;SDS011;39387;50.998;22.340;2023-04-03T01:06:04;4.93;;;2.67;;
53503;SDS011;39387;50.998;22.340;2023-04-03T01:08:32;5.80;;;3.33;;
53503;SDS011;39387;50.998;22.340;2023-04-03T01:10:59;6.03;;;2.97;;
53503;SDS011;39387;50.998;22.340;2023-04-03T01:13:29;3.88;;;2.58;;
53503;SDS011;39387;50.998;22.340;2023-04-03T01:16:00;3.95;;;2.60;;
53503;SDS011;39387;50.998;22.340;2023-04-03T01:18:28;5.40;;;2.45;;
53503;SDS011;39387;50.998;22.340;2023-04-03T01:23:49;5.65;;;2.70;;
53503;SDS011;39387;50.998;22.340;2023-04-03T01:26:23;5.47;;;2.78;;
53503;SDS011;39387;50.998;22.340;2023-04-03T01:28:54;3.90;;;2.88;;
53503;SDS011;39387;50.998;22.340;2023-04-03T01:31:22;4.13;;;2.50;;
53503;SDS011;39387;50.998;22.340;2023-04-03T01:33:54;4.40;;;2.80;;
53503;SDS011;39387;50.998;22.340;2023-04-03T01:36:22;4.65;;;2.50;;
53503;SDS011;39387;50.998;22.340;2023-04-03T01:38:51;5.47;;;3.20;;
53503;SDS011;39387;50.998;22.340;2023-04-03T01:41:19;4.15;;;3.00;;
53503;SDS011;39387;50.998;22.340;2023-04-03T01:43:47;5.25;;;3.28;;
53503;SDS011;39387;50.998;22.340;2023-04-03T01:46:14;5.82;;;3.30;;
53503;SDS011;39387;50.998;22.340;2023-04-03T01:48:42;5.35;;;3.42;;
53503;SDS011;39387;50.998;22.340;2023-04-03T01:51:11;6.72;;;3.22;;
53503;SDS011;39387;50.998;22.340;2023-04-03T01:53:39;6.90;;;3.45;;
53503;SDS011;39387;50.998;22.340;2023-04-03T01:56:06;7.28;;;3.42;;
53503;SDS011;39387;50.998;22.340;2023-04-03T01:58:34;6.95;;;3.92;;
53503;SDS011;39387;50.998;22.340;2023-04-03T02:01:01;7.25;;;3.25;;
53503;SDS011;39387;50.998;22.340;2023-04-03T02:03:29;5.03;;;3.20;;
53503;SDS011;39387;50.998;22.340;2023-04-03T02:05:56;7.68;;;3.50;;
53503;SDS011;39387;50.998;22.340;2023-04-03T02:08:25;5.57;;;3.70;;
53503;SDS011;39387;50.998;22.340;2023-04-03T02:10:52;5.60;;;3.10;;
53503;SDS011;39387;50.998;22.340;2023-04-03T02:13:20;5.07;;;2.72;;
53503;SDS011;39387;50.998;22.340;2023-04-03T02:15:47;7.03;;;3.00;;
53503;SDS011;39387;50.998;22.340;2023-04-03T02:18:15;7.90;;;3.45;;
53503;SDS011;39387;50.998;22.340;2023-04-03T02:20:43;5.93;;;3.22;;
53503;SDS011;39387;50.998;22.340;2023-04-03T02:23:11;7.05;;;3.28;;
53503;SDS011;39387;50.998;22.340;2023-04-03T02:25:39;4.80;;;3.00;;
53503;SDS011;39387;50.998;22.340;2023-04-03T02:28:07;4.85;;;3.10;;
53503;SDS011;39387;50.998;22.340;2023-04-03T02:30:34;4.93;;;2.95;;
53503;SDS011;39387;50.998;22.340;2023-04-03T02:33:02;7.93;;;3.17;;
53503;SDS011;39387;50.998;22.340;2023-04-03T02:35:29;4.55;;;3.03;;
53503;SDS011;39387;50.998;22.340;2023-04-03T02:37:56;5.75;;;3.58;;
53503;SDS011;39387;50.998;22.340;2023-04-03T02:40:24;5.70;;;3.33;;
53503;SDS011;39387;50.998;22.340;2023-04-03T02:42:53;5.72;;;3.35;;
53503;SDS011;39387;50.998;22.340;2023-04-03T02:45:20;6.10;;;3.42;;
53503;SDS011;39387;50.998;22.340;2023-04-03T02:47:47;5.72;;;2.95;;
53503;SDS011;39387;50.998;22.340;2023-04-03T02:50:15;5.63;;;2.67;;
53503;SDS011;39387;50.998;22.340;2023-04-03T02:52:44;6.03;;;2.97;;
53503;SDS011;39387;50.998;22.340;2023-04-03T02:55:13;5.95;;;3.38;;
53503;SDS011;39387;50.998;22.340;2023-04-03T02:57:41;8.35;;;3.65;;
53503;SDS011;39387;50.998;22.340;2023-04-03T03:00:10;6.53;;;3.30;;
53503;SDS011;39387;50.998;22.340;2023-04-03T03:02:39;4.87;;;2.83;;
53503;SDS011;39387;50.998;22.340;2023-04-03T03:05:06;7.45;;;3.33;;
53503;SDS011;39387;50.998;22.340;2023-04-03T03:07:34;8.57;;;3.58;;
53503;SDS011;39387;50.998;22.340;2023-04-03T03:10:02;7.22;;;4.20;;
53503;SDS011;39387;50.998;22.340;2023-04-03T03:12:29;7.22;;;3.80;;
53503;SDS011;39387;50.998;22.340;2023-04-03T03:14:56;7.35;;;3.72;;
53503;SDS011;39387;50.998;22.340;2023-04-03T03:17:25;8.88;;;3.95;;
53503;SDS011;39387;50.998;22.340;2023-04-03T03:19:53;8.48;;;3.70;;
53503;SDS011;39387;50.998;22.340;2023-04-03T03:22:25;7.22;;;3.53;;
53503;SDS011;39387;50.998;22.340;2023-04-03T03:24:53;8.00;;;3.35;;
53503;SDS011;39387;50.998;22.340;2023-04-03T03:27:21;7.25;;;3.58;;
53503;SDS011;39387;50.998;22.340;2023-04-03T03:29:49;6.03;;;3.17;;
53503;SDS011;39387;50.998;22.340;2023-04-03T03:34:53;7.32;;;3.70;;
53503;SDS011;39387;50.998;22.340;2023-04-03T03:37:21;5.82;;;3.05;;
53503;SDS011;39387;50.998;22.340;2023-04-03T03:39:48;9.00;;;3.58;;
53503;SDS011;39387;50.998;22.340;2023-04-03T03:42:16;6.15;;;3.58;;
53503;SDS011;39387;50.998;22.340;2023-04-03T03:44:43;5.47;;;2.85;;
53503;SDS011;39387;50.998;22.340;2023-04-03T03:47:11;6.32;;;3.05;;
53503;SDS011;39387;50.998;22.340;2023-04-03T03:54:48;8.38;;;2.88;;
53503;SDS011;39387;50.998;22.340;2023-04-03T03:57:16;6.35;;;2.85;;
53503;SDS011;39387;50.998;22.340;2023-04-03T03:59:43;5.82;;;2.72;;
53503;SDS011;39387;50.998;22.340;2023-04-03T04:02:10;4.40;;;2.60;;
53503;SDS011;39387;50.998;22.340;2023-04-03T04:04:38;5.18;;;2.88;;
53503;SDS011;39387;50.998;22.340;2023-04-03T04:07:05;3.08;;;2.58;;
53503;SDS011;39387;50.998;22.340;2023-04-03T04:09:34;6.15;;;2.67;;
53503;SDS011;39387;50.998;22.340;2023-04-03T04:12:02;5.20;;;2.83;;
53503;SDS011;39387;50.998;22.340;2023-04-03T04:14:39;6.15;;;2.40;;
53503;SDS011;39387;50.998;22.340;2023-04-03T04:17:07;5.70;;;2.50;;
53503;SDS011;39387;50.998;22.340;2023-04-03T04:19:34;3.65;;;1.98;;
53503;SDS011;39387;50.998;22.340;2023-04-03T04:22:02;4.07;;;2.20;;
53503;SDS011;39387;50.998;22.340;2023-04-03T04:30:04;2.88;;;1.75;;
53503;SDS011;39387;50.998;22.340;2023-04-03T04:32:32;3.55;;;1.73;;
53503;SDS011;39387;50.998;22.340;2023-04-03T04:35:00;4.20;;;1.52;;
53503;SDS011;39387;50.998;22.340;2023-04-03T04:37:27;3.05;;;1.70;;
53503;SDS011;39387;50.998;22.340;2023-04-03T04:39:55;6.50;;;1.73;;
53503;SDS011;39387;50.998;22.340;2023-04-03T04:42:22;6.00;;;2.17;;
53503;SDS011;39387;50.998;22.340;2023-04-03T04:44:50;4.47;;;1.83;;
53503;SDS011;39387;50.998;22.340;2023-04-03T04:47:18;3.10;;;1.20;;
53503;SDS011;39387;50.998;22.340;2023-04-03T04:49:46;2.70;;;1.60;;
53503;SDS011;39387;50.998;22.340;2023-04-03T04:52:13;3.03;;;1.52;;
53503;SDS011;39387;50.998;22.340;2023-04-03T04:54:41;3.22;;;1.20;;
53503;SDS011;39387;50.998;22.340;2023-04-03T04:57:08;5.32;;;1.33;;
53503;SDS011;39387;50.998;22.340;2023-04-03T04:59:36;3.13;;;1.45;;
53503;SDS011;39387;50.998;22.340;2023-04-03T05:02:03;5.32;;;1.30;;
53503;SDS011;39387;50.998;22.340;2023-04-03T05:04:33;2.70;;;1.30;;
53503;SDS011;39387;50.998;22.340;2023-04-03T05:07:00;3.95;;;1.30;;
53503;SDS011;39387;50.998;22.340;2023-04-03T05:09:28;3.45;;;1.17;;
53503;SDS011;39387;50.998;22.340;2023-04-03T05:11:55;3.83;;;1.30;;
53503;SDS011;39387;50.998;22.340;2023-04-03T05:14:23;4.05;;;1.50;;
53503;SDS011;39387;50.998;22.340;2023-04-03T05:16:50;3.05;;;0.90;;
53503;SDS011;39387;50.998;22.340;2023-04-03T05:19:19;3.15;;;1.40;;
53503;SDS011;39387;50.998;22.340;2023-04-03T05:21:48;2.55;;;1.33;;
53503;SDS011;39387;50.998;22.340;2023-04-03T05:24:15;1.92;;;1.10;;
53503;SDS011;39387;50.998;22.340;2023-04-03T05:26:43;3.72;;;1.40;;
53503;SDS011;39387;50.998;22.340;2023-04-03T05:29:11;2.45;;;1.05;;
53503;SDS011;39387;50.998;22.340;2023-04-03T05:31:38;3.58;;;1.10;;
53503;SDS011;39387;50.998;22.340;2023-04-03T05:34:05;2.08;;;1.00;;
53503;SDS011;39387;50.998;22.340;2023-04-03T05:36:32;5.10;;;1.98;;
53503;SDS011;39387;50.998;22.340;2023-04-03T05:39:01;2.13;;;1.10;;
53503;SDS011;39387;50.998;22.340;2023-04-03T05:41:29;3.70;;;1.10;;
53503;SDS011;39387;50.998;22.340;2023-04-03T05:43:56;6.60;;;1.63;;
53503;SDS011;39387;50.998;22.340;2023-04-03T05:46:24;2.80;;;1.33;;
53503;SDS011;39387;50.998;22.340;2023-04-03T05:48:51;2.60;;;1.10;;
53503;SDS011;39387;50.998;22.340;2023-04-03T05:51:19;2.85;;;1.17;;
53503;SDS011;39387;50.998;22.340;2023-04-03T05:53:48;3.90;;;1.53;;
53503;SDS011;39387;50.998;22.340;2023-04-03T05:56:20;3.78;;;1.75;;
53503;SDS011;39387;50.998;22.340;2023-04-03T05:58:48;9.07;;;3.50;;
53503;SDS011;39387;50.998;22.340;2023-04-03T06:01:15;6.45;;;2.65;;
53503;SDS011;39387;50.998;22.340;2023-04-03T06:03:43;4.30;;;2.33;;
53503;SDS011;39387;50.998;22.340;2023-04-03T06:06:12;2.58;;;1.30;;
53503;SDS011;39387;50.998;22.340;2023-04-03T06:08:40;2.97;;;1.10;;
53503;SDS011;39387;50.998;22.340;2023-04-03T06:11:07;3.75;;;1.42;;
53503;SDS011;39387;50.998;22.340;2023-04-03T06:13:37;1.75;;;1.20;;
53503;SDS011;39387;50.998;22.340;2023-04-03T06:16:05;2.15;;;0.77;;
53503;SDS011;39387;50.998;22.340;2023-04-03T06:18:33;3.42;;;1.10;;
53503;SDS011;39387;50.998;22.340;2023-04-03T06:21:00;1.52;;;1.27;;
53503;SDS011;39387;50.998;22.340;2023-04-03T06:23:28;2.65;;;1.30;;
53503;SDS011;39387;50.998;22.340;2023-04-03T06:25:55;2.13;;;1.27;;
53503;SDS011;39387;50.998;22.340;2023-04-03T06:28:23;3.22;;;1.13;;
53503;SDS011;39387;50.998;22.340;2023-04-03T06:30:51;2.58;;;1.13;;
53503;SDS011;39387;50.998;22.340;2023-04-03T06:33:19;3.33;;;1.20;;
53503;SDS011;39387;50.998;22.340;2023-04-03T06:35:46;3.15;;;1.15;;
53503;SDS011;39387;50.998;22.340;2023-04-03T06:38:13;2.50;;;1.40;;
53503;SDS011;39387;50.998;22.340;2023-04-03T06:40:41;2.72;;;1.33;;
53503;SDS011;39387;50.998;22.340;2023-04-03T06:43:09;3.22;;;1.17;;
53503;SDS011;39387;50.998;22.340;2023-04-03T06:45:36;1.70;;;1.17;;
53503;SDS011;39387;50.998;22.340;2023-04-03T06:48:05;2.50;;;1.00;;
53503;SDS011;39387;50.998;22.340;2023-04-03T06:50:33;2.33;;;1.00;;
53503;SDS011;39387;50.998;22.340;2023-04-03T06:53:00;1.48;;;0.93;;
53503;SDS011;39387;50.998;22.340;2023-04-03T06:55:27;3.22;;;1.13;;
53503;SDS011;39387;50.998;22.340;2023-04-03T06:57:55;3.13;;;1.10;;
53503;SDS011;39387;50.998;22.340;2023-04-03T07:00:22;2.13;;;0.88;;
53503;SDS011;39387;50.998;22.340;2023-04-03T07:02:50;1.75;;;0.82;;
53503;SDS011;39387;50.998;22.340;2023-04-03T07:05:19;1.88;;;1.05;;
53503;SDS011;39387;50.998;22.340;2023-04-03T07:07:47;2.13;;;0.82;;
53503;SDS011;39387;50.998;22.340;2023-04-03T07:10:15;2.00;;;1.10;;
53503;SDS011;39387;50.998;22.340;2023-04-03T07:12:43;3.55;;;1.17;;
53503;SDS011;39387;50.998;22.340;2023-04-03T07:15:10;2.83;;;1.13;;
53503;SDS011;39387;50.998;22.340;2023-04-03T07:17:39;3.25;;;2.20;;
53503;SDS011;39387;50.998;22.340;2023-04-03T07:20:08;2.08;;;0.93;;
53503;SDS011;39387;50.998;22.340;2023-04-03T07:22:37;2.20;;;0.75;;
53503;SDS011;39387;50.998;22.340;2023-04-03T07:25:05;3.92;;;1.50;;
53503;SDS011;39387;50.998;22.340;2023-04-03T07:27:33;2.58;;;0.80;;
53503;SDS011;39387;50.998;22.340;2023-04-03T07:30:00;3.33;;;1.30;;
53503;SDS011;39387;50.998;22.340;2023-04-03T07:32:28;2.92;;;1.00;;
53503;SDS011;39387;50.998;22.340;2023-04-03T07:34:56;3.40;;;1.35;;
53503;SDS011;39387;50.998;22.340;2023-04-03T07:37:24;3.10;;;1.10;;
53503;SDS011;39387;50.998;22.340;2023-04-03T07:39:53;4.28;;;1.65;;
53503;SDS011;39387;50.998;22.340;2023-04-03T07:42:20;3.45;;;1.00;;
53503;SDS011;39387;50.998;22.340;2023-04-03T07:44:48;2.47;;;1.08;;
53503;SDS011;39387;50.998;22.340;2023-04-03T07:47:15;1.63;;;1.00;;
53503;SDS011;39387;50.998;22.340;2023-04-03T07:49:43;2.40;;;1.10;;
53503;SDS011;39387;50.998;22.340;2023-04-03T07:52:11;2.20;;;1.30;;
53503;SDS011;39387;50.998;22.340;2023-04-03T07:54:38;4.05;;;1.70;;
53503;SDS011;39387;50.998;22.340;2023-04-03T07:57:07;1.88;;;0.93;;
53503;SDS011;39387;50.998;22.340;2023-04-03T07:59:35;2.17;;;1.05;;
53503;SDS011;39387;50.998;22.340;2023-04-03T08:02:02;1.88;;;1.38;;
53503;SDS011;39387;50.998;22.340;2023-04-03T08:04:30;2.38;;;1.40;;
53503;SDS011;39387;50.998;22.340;2023-04-03T08:06:58;6.40;;;1.55;;
53503;SDS011;39387;50.998;22.340;2023-04-03T08:09:25;4.47;;;1.13;;
53503;SDS011;39387;50.998;22.340;2023-04-03T08:11:52;2.08;;;1.20;;
53503;SDS011;39387;50.998;22.340;2023-04-03T08:14:21;3.83;;;1.50;;
53503;SDS011;39387;50.998;22.340;2023-04-03T08:16:48;6.50;;;1.80;;
53503;SDS011;39387;50.998;22.340;2023-04-03T08:19:16;3.45;;;2.00;;
53503;SDS011;39387;50.998;22.340;2023-04-03T08:21:43;2.55;;;1.30;;
53503;SDS011;39387;50.998;22.340;2023-04-03T08:24:12;2.17;;;1.38;;
53503;SDS011;39387;50.998;22.340;2023-04-03T08:26:39;2.72;;;1.40;;
53503;SDS011;39387;50.998;22.340;2023-04-03T08:29:07;2.13;;;1.05;;
53503;SDS011;39387;50.998;22.340;2023-04-03T08:31:36;2.25;;;1.10;;
53503;SDS011;39387;50.998;22.340;2023-04-03T08:34:03;3.25;;;1.73;;
53503;SDS011;39387;50.998;22.340;2023-04-03T08:36:31;4.32;;;1.38;;
53503;SDS011;39387;50.998;22.340;2023-04-03T08:38:58;2.70;;;1.23;;
53503;SDS011;39387;50.998;22.340;2023-04-03T08:41:29;3.13;;;1.65;;
53503;SDS011;39387;50.998;22.340;2023-04-03T08:46:32;3.95;;;1.50;;
53503;SDS011;39387;50.998;22.340;2023-04-03T08:49:07;2.80;;;1.33;;
53503;SDS011;39387;50.998;22.340;2023-04-03T08:54:06;3.15;;;1.17;;
53503;SDS011;39387;50.998;22.340;2023-04-03T08:56:44;4.35;;;1.73;;
53503;SDS011;39387;50.998;22.340;2023-04-03T08:59:12;2.17;;;1.48;;
53503;SDS011;39387;50.998;22.340;2023-04-03T09:01:42;1.70;;;1.38;;
53503;SDS011;39387;50.998;22.340;2023-04-03T09:04:10;1.52;;;1.30;;
53503;SDS011;39387;50.998;22.340;2023-04-03T09:06:39;3.28;;;1.15;;
53503;SDS011;39387;50.998;22.340;2023-04-03T09:09:11;2.10;;;1.15;;
53503;SDS011;39387;50.998;22.340;2023-04-03T09:11:44;3.78;;;1.10;;
53503;SDS011;39387;50.998;22.340;2023-04-03T09:14:16;2.42;;;1.13;;
53503;SDS011;39387;50.998;22.340;2023-04-03T09:16:52;1.88;;;1.23;;
53503;SDS011;39387;50.998;22.340;2023-04-03T09:19:22;3.20;;;1.13;;
53503;SDS011;39387;50.998;22.340;2023-04-03T09:21:56;1.20;;;0.82;;
53503;SDS011;39387;50.998;22.340;2023-04-03T09:24:23;1.52;;;1.00;;
53503;SDS011;39387;50.998;22.340;2023-04-03T09:26:52;2.13;;;1.38;;
53503;SDS011;39387;50.998;22.340;2023-04-03T09:29:24;3.97;;;1.23;;
53503;SDS011;39387;50.998;22.340;2023-04-03T09:31:55;4.07;;;1.23;;
53503;SDS011;39387;50.998;22.340;2023-04-03T09:34:24;2.58;;;1.27;;
53503;SDS011;39387;50.998;22.340;2023-04-03T09:36:54;3.53;;;1.10;;
53503;SDS011;39387;50.998;22.340;2023-04-03T09:39:23;1.63;;;1.08;;
53503;SDS011;39387;50.998;22.340;2023-04-03T09:41:55;2.55;;;1.55;;
53503;SDS011;39387;50.998;22.340;2023-04-03T09:44:25;2.13;;;1.08;;
53503;SDS011;39387;50.998;22.340;2023-04-03T09:46:55;2.38;;;1.23;;
53503;SDS011;39387;50.998;22.340;2023-04-03T09:49:22;1.83;;;1.15;;
53503;SDS011;39387;50.998;22.340;2023-04-03T09:51:49;2.72;;;1.55;;
53503;SDS011;39387;50.998;22.340;2023-04-03T09:54:31;1.38;;;1.00;;
53503;SDS011;39387;50.998;22.340;2023-04-03T09:57:03;1.92;;;1.13;;
53503;SDS011;39387;50.998;22.340;2023-04-03T09:59:33;3.63;;;1.30;;
53503;SDS011;39387;50.998;22.340;2023-04-03T10:02:03;3.53;;;1.40;;
53503;SDS011;39387;50.998;22.340;2023-04-03T10:04:37;3.78;;;1.20;;
53503;SDS011;39387;50.998;22.340;2023-04-03T10:09:55;2.50;;;1.15;;
53503;SDS011;39387;50.998;22.340;2023-04-03T10:12:23;2.90;;;1.25;;
53503;SDS011;39387;50.998;22.340;2023-04-03T10:14:54;2.70;;;1.15;;
53503;SDS011;39387;50.998;22.340;2023-04-03T10:17:26;2.38;;;0.90;;
53503;SDS011;39387;50.998;22.340;2023-04-03T10:20:03;5.05;;;1.90;;
53503;SDS011;39387;50.998;22.340;2023-04-03T10:22:40;2.60;;;1.20;;
53503;SDS011;39387;50.998;22.340;2023-04-03T10:25:11;1.58;;;0.93;;
53503;SDS011;39387;50.998;22.340;2023-04-03T10:27:45;1.73;;;1.13;;
53503;SDS011;39387;50.998;22.340;2023-04-03T10:30:20;3.20;;;1.60;;
53503;SDS011;39387;50.998;22.340;2023-04-03T10:32:58;2.65;;;1.55;;
53503;SDS011;39387;50.998;22.340;2023-04-03T10:35:32;3.38;;;0.90;;
53503;SDS011;39387;50.998;22.340;2023-04-03T10:38:08;1.38;;;1.20;;
53503;SDS011;39387;50.998;22.340;2023-04-03T10:40:39;1.88;;;1.20;;
53503;SDS011;39387;50.998;22.340;2023-04-03T10:43:15;3.42;;;1.60;;
53503;SDS011;39387;50.998;22.340;2023-04-03T10:45:49;1.60;;;1.00;;
53503;SDS011;39387;50.998;22.340;2023-04-03T10:48:27;1.83;;;1.55;;
53503;SDS011;39387;50.998;22.340;2023-04-03T10:51:05;2.40;;;1.33;;
53503;SDS011;39387;50.998;22.340;2023-04-03T10:53:42;3.92;;;1.38;;
53503;SDS011;39387;50.998;22.340;2023-04-03T10:56:13;2.95;;;1.38;;
53503;SDS011;39387;50.998;22.340;2023-04-03T10:58:47;2.75;;;1.83;;
53503;SDS011;39387;50.998;22.340;2023-04-03T11:01:16;2.47;;;1.35;;
53503;SDS011;39387;50.998;22.340;2023-04-03T11:03:49;2.38;;;1.35;;
53503;SDS011;39387;50.998;22.340;2023-04-03T11:06:18;1.92;;;1.27;;
53503;SDS011;39387;50.998;22.340;2023-04-03T11:11:17;4.07;;;1.40;;
53503;SDS011;39387;50.998;22.340;2023-04-03T11:13:49;2.17;;;1.48;;
53503;SDS011;39387;50.998;22.340;2023-04-03T11:16:19;2.83;;;1.58;;
53503;SDS011;39387;50.998;22.340;2023-04-03T11:18:54;2.67;;;1.58;;
53503;SDS011;39387;50.998;22.340;2023-04-03T11:21:26;3.45;;;1.45;;
53503;SDS011;39387;50.998;22.340;2023-04-03T11:23:57;2.90;;;1.65;;
53503;SDS011;39387;50.998;22.340;2023-04-03T11:26:26;2.72;;;1.40;;
53503;SDS011;39387;50.998;22.340;2023-04-03T11:28:56;1.95;;;1.45;;
53503;SDS011;39387;50.998;22.340;2023-04-03T11:31:29;1.40;;;1.10;;
53503;SDS011;39387;50.998;22.340;2023-04-03T11:34:08;3.10;;;1.80;;
53503;SDS011;39387;50.998;22.340;2023-04-03T11:36:42;4.35;;;1.63;;
53503;SDS011;39387;50.998;22.340;2023-04-03T11:39:16;2.10;;;1.70;;
53503;SDS011;39387;50.998;22.340;2023-04-03T11:41:47;4.13;;;2.05;;
53503;SDS011;39387;50.998;22.340;2023-04-03T11:44:32;3.83;;;1.95;;
53503;SDS011;39387;50.998;22.340;2023-04-03T11:47:02;3.45;;;1.50;;
53503;SDS011;39387;50.998;22.340;2023-04-03T11:55:42;1.35;;;1.15;;
53503;SDS011;39387;50.998;22.340;2023-04-03T11:58:34;3.65;;;1.65;;
53503;SDS011;39387;50.998;22.340;2023-04-03T12:01:05;1.77;;;1.27;;
53503;SDS011;39387;50.998;22.340;2023-04-03T12:06:50;2.40;;;1.60;;
53503;SDS011;39387;50.998;22.340;2023-04-03T12:09:32;3.55;;;1.40;;
53503;SDS011;39387;50.998;22.340;2023-04-03T12:12:20;2.30;;;1.40;;
53503;SDS011;39387;50.998;22.340;2023-04-03T12:21:22;4.20;;;2.05;;
53503;SDS011;39387;50.998;22.340;2023-04-03T12:24:03;2.60;;;1.60;;
53503;SDS011;39387;50.998;22.340;2023-04-03T12:26:36;2.50;;;1.90;;
53503;SDS011;39387;50.998;22.340;2023-04-03T12:29:15;3.45;;;1.30;;
53503;SDS011;39387;50.998;22.340;2023-04-03T12:31:46;2.45;;;1.02;;
53503;SDS011;39387;50.998;22.340;2023-04-03T12:34:27;3.15;;;1.60;;
53503;SDS011;39387;50.998;22.340;2023-04-03T12:37:19;3.63;;;1.50;;
53503;SDS011;39387;50.998;22.340;2023-04-03T12:39:55;3.33;;;1.50;;
53503;SDS011;39387;50.998;22.340;2023-04-03T12:42:34;3.20;;;1.30;;
53503;SDS011;39387;50.998;22.340;2023-04-03T12:45:20;2.33;;;1.20;;
53503;SDS011;39387;50.998;22.340;2023-04-03T12:47:48;18.25;;;2.03;;
53503;SDS011;39387;50.998;22.340;2023-04-03T12:50:18;1.90;;;1.40;;
53503;SDS011;39387;50.998;22.340;2023-04-03T12:52:50;2.17;;;1.30;;
53503;SDS011;39387;50.998;22.340;2023-04-03T12:55:21;2.65;;;1.55;;
53503;SDS011;39387;50.998;22.340;2023-04-03T12:57:48;3.10;;;1.42;;
53503;SDS011;39387;50.998;22.340;2023-04-03T13:03:05;2.95;;;1.52;;
53503;SDS011;39387;50.998;22.340;2023-04-03T13:05:33;2.70;;;1.60;;
53503;SDS011;39387;50.998;22.340;2023-04-03T13:08:02;2.67;;;1.42;;
53503;SDS011;39387;50.998;22.340;2023-04-03T13:10:32;2.65;;;1.33;;
53503;SDS011;39387;50.998;22.340;2023-04-03T13:13:06;1.65;;;1.20;;
53503;SDS011;39387;50.998;22.340;2023-04-03T13:15:42;1.58;;;1.27;;
53503;SDS011;39387;50.998;22.340;2023-04-03T13:18:28;3.38;;;1.25;;
53503;SDS011;39387;50.998;22.340;2023-04-03T13:20:58;2.80;;;1.65;;
53503;SDS011;39387;50.998;22.340;2023-04-03T13:23:27;1.77;;;1.20;;
53503;SDS011;39387;50.998;22.340;2023-04-03T13:25:57;1.10;;;0.90;;
53503;SDS011;39387;50.998;22.340;2023-04-03T13:28:29;2.58;;;1.25;;
53503;SDS011;39387;50.998;22.340;2023-04-03T13:31:00;3.72;;;1.40;;
53503;SDS011;39387;50.998;22.340;2023-04-03T13:33:31;1.55;;;1.00;;
53503;SDS011;39387;50.998;22.340;2023-04-03T13:36:04;2.22;;;1.10;;
53503;SDS011;39387;50.998;22.340;2023-04-03T13:38:33;3.00;;;1.30;;
53503;SDS011;39387;50.998;22.340;2023-04-03T13:41:03;2.70;;;1.38;;
53503;SDS011;39387;50.998;22.340;2023-04-03T13:43:32;2.08;;;1.30;;
53503;SDS011;39387;50.998;22.340;2023-04-03T13:46:04;2.67;;;1.10;;
53503;SDS011;39387;50.998;22.340;2023-04-03T13:48:48;1.92;;;1.08;;
53503;SDS011;39387;50.998;22.340;2023-04-03T13:51:18;2.17;;;1.35;;
53503;SDS011;39387;50.998;22.340;2023-04-03T13:53:49;2.25;;;1.02;;
53503;SDS011;39387;50.998;22.340;2023-04-03T13:56:20;2.85;;;1.30;;
53503;SDS011;39387;50.998;22.340;2023-04-03T13:58:59;2.38;;;1.00;;
53503;SDS011;39387;50.998;22.340;2023-04-03T14:01:44;2.20;;;1.10;;
53503;SDS011;39387;50.998;22.340;2023-04-03T14:04:16;4.55;;;1.48;;
53503;SDS011;39387;50.998;22.340;2023-04-03T14:06:45;1.67;;;1.35;;
53503;SDS011;39387;50.998;22.340;2023-04-03T14:09:14;2.72;;;1.30;;
53503;SDS011;39387;50.998;22.340;2023-04-03T14:11:43;3.88;;;1.20;;
53503;SDS011;39387;50.998;22.340;2023-04-03T14:14:13;1.65;;;0.98;;
53503;SDS011;39387;50.998;22.340;2023-04-03T14:16:43;2.90;;;1.27;;
53503;SDS011;39387;50.998;22.340;2023-04-03T14:19:18;1.92;;;1.10;;
53503;SDS011;39387;50.998;22.340;2023-04-03T14:21:48;2.58;;;1.13;;
53503;SDS011;39387;50.998;22.340;2023-04-03T14:24:16;3.10;;;1.20;;
53503;SDS011;39387;50.998;22.340;2023-04-03T14:26:45;1.33;;;0.88;;
53503;SDS011;39387;50.998;22.340;2023-04-03T14:29:13;1.55;;;1.17;;
53503;SDS011;39387;50.998;22.340;2023-04-03T14:31:42;3.08;;;1.90;;
53503;SDS011;39387;50.998;22.340;2023-04-03T14:34:12;2.92;;;1.85;;
53503;SDS011;39387;50.998;22.340;2023-04-03T14:36:41;4.13;;;2.00;;
53503;SDS011;39387;50.998;22.340;2023-04-03T14:39:11;2.85;;;1.83;;
53503;SDS011;39387;50.998;22.340;2023-04-03T14:41:43;5.03;;;2.03;;
53503;SDS011;39387;50.998;22.340;2023-04-03T14:44:10;3.50;;;1.45;;
53503;SDS011;39387;50.998;22.340;2023-04-03T14:46:39;4.70;;;2.70;;
53503;SDS011;39387;50.998;22.340;2023-04-03T14:49:11;4.95;;;2.90;;
53503;SDS011;39387;50.998;22.340;2023-04-03T14:51:40;6.03;;;2.72;;
53503;SDS011;39387;50.998;22.340;2023-04-03T14:54:10;2.05;;;1.50;;
53503;SDS011;39387;50.998;22.340;2023-04-03T14:56:40;2.20;;;1.17;;
53503;SDS011;39387;50.998;22.340;2023-04-03T14:59:08;2.88;;;1.75;;
53503;SDS011;39387;50.998;22.340;2023-04-03T15:01:37;4.32;;;1.90;;
53503;SDS011;39387;50.998;22.340;2023-04-03T15:04:08;3.83;;;1.75;;
53503;SDS011;39387;50.998;22.340;2023-04-03T15:06:39;2.22;;;1.42;;
53503;SDS011;39387;50.998;22.340;2023-04-03T15:09:10;2.40;;;1.20;;
53503;SDS011;39387;50.998;22.340;2023-04-03T15:11:43;3.80;;;1.50;;
53503;SDS011;39387;50.998;22.340;2023-04-03T15:14:11;3.33;;;1.48;;
53503;SDS011;39387;50.998;22.340;2023-04-03T15:16:38;3.97;;;1.27;;
53503;SDS011;39387;50.998;22.340;2023-04-03T15:19:06;4.00;;;1.90;;
53503;SDS011;39387;50.998;22.340;2023-04-03T15:21:35;3.67;;;1.92;;
53503;SDS011;39387;50.998;22.340;2023-04-03T15:24:03;2.13;;;1.27;;
53503;SDS011;39387;50.998;22.340;2023-04-03T15:26:30;2.90;;;1.50;;
53503;SDS011;39387;50.998;22.340;2023-04-03T15:28:59;3.80;;;1.60;;
53503;SDS011;39387;50.998;22.340;2023-04-03T15:31:26;1.75;;;1.17;;
53503;SDS011;39387;50.998;22.340;2023-04-03T15:33:54;3.80;;;1.52;;